Airfield :
LOGIN :

Register | Disclaimer

   EN    FR    IT 

 










Legend :    VFR   Marginal VFR   IFR   Intensive IFR   Very Intensive IFR
Visi :
Ceiling :
>= 8 km
>= 3000ft
5 to 8 km
1000 to 3000 ft
1500m to 5 km
500 to 1000 ft
800 to 1500m
200 to 500 ft
< 800m
< 200 ft
Symbols :   Thunderstorms  Fog  Heavy snow  Heavy precipitations  Wind > 20 kt
SIGMETs :     Misc.  Thunderstorms  Icing  Turbulence  Mountain Waves  Volcanic Ashes






- Airport Elevation : 93 ft
- IATA code : XRY


LEJR - Jerez

CURRENT METAR :
  • 200730Z 00000KT 9999 MIFG NSC 02/01 Q1027

EXPIRED METARs :
  • 200700Z 00000KT CAVOK 02/01 Q1027
  • 200630Z VRB01KT CAVOK 02/01 Q1027
  • 200600Z VRB02KT CAVOK 02/01 Q1027
  • 200530Z 36003KT 330V030 CAVOK 02/01 Q1026
  • 200500Z 03004KT CAVOK 02/01 Q1026

TAF TAF LEJR
Valid from the 20 at 03:00 until the 21 at 03:00 UTC


200200Z 2003/2103 04004KT CAVOK TX17/2015Z TN01/2007Z
PROB30
TEMPO 2003/2008 3000 BR



MET'MAP, your aeronautical weather chart ! - Copyright ORBIFLY December 2007 - Disclaimer

ORBIFLY MET'MAP TEAM :

Programming & Development : Alexandra Zaïnal
Concept & original design : Baudouin d'Aumeries
Assistance for programming : Marc-Olivier Méhu
Technical & hardware support : Manuel Goepfert

Contact : metmap@orbifly.com




SOURCES & CREDITS :

   NOAA